createdAt,value
2022-09-12T00:00:48.786Z,18.52
2022-09-12T00:03:18.381Z,18.42
2022-09-12T00:05:49.157Z,19.35
2022-09-12T00:10:52.202Z,19.20
2022-09-12T00:13:21.761Z,18.67
2022-09-12T00:15:51.034Z,20.48
2022-09-12T00:18:20.879Z,19.00
2022-09-12T00:20:50.306Z,18.75
2022-09-12T00:23:19.629Z,19.08
2022-09-12T00:25:52.622Z,18.52
2022-09-12T00:28:21.981Z,19.52
2022-09-12T00:30:51.555Z,20.52
2022-09-12T00:33:21.118Z,18.33
2022-09-12T00:35:53.014Z,20.60
2022-09-12T00:38:23.398Z,21.10
2022-09-12T00:40:53.932Z,21.40
2022-09-12T00:43:39.197Z,20.27
2022-09-12T00:46:17.643Z,21.00
2022-09-12T00:48:53.701Z,19.98
2022-09-12T00:51:24.455Z,22.30
2022-09-12T00:53:56.795Z,21.45
2022-09-12T00:56:29.116Z,22.30
2022-09-12T00:59:06.455Z,22.70
2022-09-12T01:01:36.819Z,21.55
2022-09-12T01:04:06.505Z,21.85
2022-09-12T01:06:38.446Z,21.52
2022-09-12T01:09:08.664Z,20.80
2022-09-12T01:11:41.392Z,19.33
2022-09-12T01:14:10.999Z,18.50
2022-09-12T01:16:40.999Z,20.17
2022-09-12T01:19:37.135Z,18.58
2022-09-12T01:22:20.915Z,20.80
2022-09-12T01:25:07.134Z,20.85
2022-09-12T01:27:49.113Z,19.65
2022-09-12T01:30:34.438Z,21.05
2022-09-12T01:33:27.994Z,21.02
2022-09-12T01:38:40.690Z,19.75
2022-09-12T01:41:14.196Z,22.17
2022-09-12T01:43:49.306Z,20.65
2022-09-12T01:46:28.810Z,21.05
2022-09-12T01:49:03.808Z,21.30
2022-09-12T01:51:38.408Z,20.08
2022-09-12T01:54:11.809Z,20.70
2022-09-12T01:56:44.414Z,19.15
2022-09-12T01:59:21.568Z,21.60
2022-09-12T02:01:57.843Z,20.20
2022-09-12T02:04:34.303Z,20.25
2022-09-12T02:07:12.559Z,21.45
2022-09-12T02:09:47.214Z,20.67
2022-09-12T02:12:27.222Z,21.75
2022-09-12T02:15:03.047Z,20.77
2022-09-12T02:17:38.513Z,20.80
2022-09-12T02:20:21.407Z,20.23
2022-09-12T02:23:08.290Z,23.25
2022-09-12T02:25:43.230Z,21.27
2022-09-12T02:28:16.696Z,23.45
2022-09-12T02:30:56.333Z,21.17
2022-09-12T02:33:32.174Z,22.15
2022-09-12T02:36:14.453Z,22.30
2022-09-12T02:38:46.969Z,24.83
2022-09-12T02:41:20.525Z,24.40
2022-09-12T02:43:51.466Z,23.92
2022-09-12T02:46:23.690Z,22.58
2022-09-12T02:48:54.583Z,23.83
2022-09-12T02:51:24.045Z,24.10
2022-09-12T02:53:55.939Z,24.65
2022-09-12T02:56:28.475Z,25.15
2022-09-12T02:59:04.174Z,23.80
2022-09-12T03:01:56.825Z,23.58
2022-09-12T03:04:56.976Z,24.35
2022-09-12T03:07:44.611Z,23.52
2022-09-12T03:10:23.733Z,24.48
2022-09-12T03:13:03.537Z,23.52
2022-09-12T03:15:43.303Z,23.10
2022-09-12T03:18:24.471Z,23.70
2022-09-12T03:21:04.633Z,24.23
2022-09-12T03:23:39.520Z,23.88
2022-09-12T03:26:14.311Z,23.55
2022-09-12T03:28:45.491Z,25.40
2022-09-12T03:31:17.602Z,25.63
2022-09-12T03:33:48.164Z,24.83
2022-09-12T03:36:24.316Z,25.38
2022-09-12T03:38:54.499Z,24.30
2022-09-12T03:41:24.318Z,25.05
2022-09-12T03:43:53.897Z,25.63
2022-09-12T03:46:23.932Z,25.25
2022-09-12T03:48:53.745Z,26.52
2022-09-12T03:51:24.838Z,25.98
2022-09-12T03:53:54.891Z,26.70
2022-09-12T03:56:24.789Z,27.92
2022-09-12T03:58:54.714Z,26.83
2022-09-12T04:01:25.481Z,28.83
2022-09-12T04:03:55.525Z,26.42
2022-09-12T04:06:26.936Z,27.38
2022-09-12T04:08:57.331Z,28.52
2022-09-12T04:11:27.242Z,27.63
2022-09-12T04:13:57.080Z,26.98
2022-09-12T04:16:26.914Z,28.10
2022-09-12T04:18:57.411Z,29.67
2022-09-12T04:21:28.663Z,29.90
2022-09-12T04:24:06.296Z,27.83
2022-09-12T04:26:35.586Z,28.80
2022-09-12T04:29:05.240Z,27.75
2022-09-12T04:31:34.045Z,28.33
2022-09-12T04:34:03.054Z,29.85
2022-09-12T04:36:34.351Z,27.90
2022-09-12T04:39:06.140Z,29.48
2022-09-12T04:41:37.189Z,27.50
2022-09-12T04:44:08.661Z,28.33
2022-09-12T04:46:42.043Z,28.02
2022-09-12T04:49:11.248Z,28.20
2022-09-12T04:51:43.213Z,27.88
2022-09-12T04:54:15.176Z,30.05
2022-09-12T04:56:45.784Z,30.48
2022-09-12T04:59:15.873Z,29.15
2022-09-12T05:01:44.898Z,29.30
2022-09-12T05:04:14.712Z,29.70
2022-09-12T05:06:47.420Z,28.70
2022-09-12T05:09:17.135Z,27.92
2022-09-12T05:12:03.867Z,26.85
2022-09-12T05:14:35.254Z,26.98
2022-09-12T05:17:06.122Z,27.52
2022-09-12T05:19:37.044Z,28.65
2022-09-12T05:22:07.377Z,30.83
2022-09-12T05:24:37.874Z,30.10
2022-09-12T05:27:06.685Z,29.05
2022-09-12T05:29:36.001Z,27.45
2022-09-12T05:32:07.321Z,30.48
2022-09-12T05:34:37.891Z,28.75
2022-09-12T05:37:08.097Z,28.45
2022-09-12T05:39:36.852Z,28.90
2022-09-12T05:42:09.282Z,44.30
2022-09-12T05:44:38.040Z,54.28
2022-09-12T05:47:07.155Z,31.38
2022-09-12T05:49:37.226Z,31.13
2022-09-12T05:52:07.718Z,31.27
2022-09-12T05:54:36.956Z,31.02
2022-09-12T05:57:06.175Z,32.05
2022-09-12T05:59:34.888Z,30.85
2022-09-12T06:02:04.366Z,31.42
2022-09-12T06:04:33.698Z,30.65
2022-09-12T06:07:02.963Z,30.08
2022-09-12T06:09:33.063Z,29.95
2022-09-12T06:12:05.023Z,31.23
2022-09-12T06:14:34.205Z,28.30
2022-09-12T06:17:03.099Z,29.48
2022-09-12T06:19:32.183Z,29.65
2022-09-12T06:22:03.225Z,30.13
2022-09-12T06:24:33.535Z,28.98
2022-09-12T06:27:02.812Z,30.10
2022-09-12T06:29:34.018Z,30.88
2022-09-12T06:32:05.455Z,30.17
2022-09-12T06:34:34.085Z,41.30
2022-09-12T06:37:04.121Z,42.67
2022-09-12T06:39:36.705Z,30.33
2022-09-12T06:42:05.705Z,29.13
2022-09-12T06:44:37.983Z,31.17
2022-09-12T06:47:09.154Z,29.80
2022-09-12T06:49:38.452Z,30.23
2022-09-12T06:52:07.627Z,30.13
2022-09-12T06:54:37.836Z,29.35
2022-09-12T06:57:07.519Z,26.70
2022-09-12T06:59:36.417Z,28.02
2022-09-12T07:02:05.654Z,27.88
2022-09-12T07:04:36.887Z,27.48
2022-09-12T07:07:05.855Z,25.85
2022-09-12T07:09:34.925Z,26.95
2022-09-12T07:12:06.372Z,25.85
2022-09-12T07:14:35.153Z,24.35
2022-09-12T07:17:12.888Z,26.23
2022-09-12T07:19:42.084Z,25.40
2022-09-12T07:22:11.034Z,24.58
2022-09-12T07:24:42.499Z,25.23
2022-09-12T07:27:13.164Z,24.90
2022-09-12T07:29:42.475Z,25.77
2022-09-12T07:32:12.196Z,24.27
2022-09-12T07:34:40.891Z,24.30
2022-09-12T07:37:09.659Z,24.58
2022-09-12T07:39:39.037Z,24.80
2022-09-12T07:42:12.754Z,21.73
2022-09-12T07:44:44.507Z,22.55
2022-09-12T07:47:13.445Z,21.52
2022-09-12T07:49:42.297Z,21.73
2022-09-12T07:52:13.393Z,21.73
2022-09-12T07:54:42.329Z,19.27
2022-09-12T07:57:11.218Z,21.38
2022-09-12T07:59:52.550Z,19.55
2022-09-12T08:02:23.514Z,22.38
2022-09-12T08:04:55.361Z,21.35
2022-09-12T08:07:24.331Z,19.98
2022-09-12T08:09:53.529Z,21.05
2022-09-12T08:12:22.689Z,20.48
2022-09-12T08:14:51.570Z,20.02
2022-09-12T08:17:20.721Z,18.65
2022-09-12T08:19:51.130Z,19.13
2022-09-12T08:22:22.114Z,19.40
2022-09-12T08:24:51.352Z,20.23
2022-09-12T08:27:22.642Z,19.13
2022-09-12T08:29:52.030Z,19.20
2022-09-12T08:32:21.012Z,20.40
2022-09-12T08:34:51.632Z,19.35
2022-09-12T08:37:20.414Z,19.23
2022-09-12T08:39:49.219Z,18.73
2022-09-12T08:42:30.996Z,17.80
2022-09-12T08:45:16.598Z,16.50
2022-09-12T08:47:47.463Z,17.55
2022-09-12T08:50:20.582Z,17.33
2022-09-12T08:52:58.744Z,17.40
2022-09-12T08:55:32.930Z,19.77
2022-09-12T08:58:07.177Z,21.75
2022-09-12T09:00:47.744Z,19.15
2022-09-12T09:03:40.082Z,15.60
2022-09-12T09:06:22.380Z,16.35
2022-09-12T09:09:05.840Z,15.35
2022-09-12T09:11:53.231Z,15.35
2022-09-12T09:14:50.791Z,17.45
2022-09-12T09:17:28.187Z,15.80
2022-09-12T09:20:06.944Z,14.95
2022-09-12T09:22:45.007Z,14.88
2022-09-12T09:25:23.045Z,15.93
2022-09-12T09:27:59.578Z,16.05
2022-09-12T09:30:29.143Z,13.15
2022-09-12T09:33:01.482Z,14.30
2022-09-12T09:35:45.678Z,15.43
2022-09-12T09:38:24.735Z,13.60
2022-09-12T09:41:06.729Z,15.43
2022-09-12T09:43:35.777Z,12.90
2022-09-12T09:46:05.423Z,12.63
2022-09-12T09:48:37.109Z,12.98
2022-09-12T09:51:09.278Z,11.73
2022-09-12T09:53:46.867Z,15.95
2022-09-12T09:56:28.178Z,10.15
2022-09-12T09:58:57.054Z,10.60
2022-09-12T10:01:27.537Z,9.95
2022-09-12T10:03:57.294Z,10.20
2022-09-12T10:06:34.434Z,8.20
2022-09-12T10:09:19.908Z,7.22
2022-09-12T10:11:49.570Z,16.15
2022-09-12T10:14:37.174Z,8.45
2022-09-12T10:17:25.923Z,6.93
2022-09-12T10:20:17.505Z,6.10
2022-09-12T10:22:48.774Z,6.85
2022-09-12T10:25:20.759Z,5.18
2022-09-12T10:27:55.503Z,5.90
2022-09-12T10:30:28.698Z,6.32
2022-09-12T10:33:10.284Z,6.03
2022-09-12T10:35:49.809Z,6.25
2022-09-12T10:38:24.582Z,6.85
2022-09-12T10:41:00.084Z,7.38
2022-09-12T10:43:31.324Z,8.43
2022-09-12T10:46:21.011Z,7.68
2022-09-12T10:48:51.588Z,8.25
2022-09-12T10:51:29.366Z,9.00
2022-09-12T10:54:03.021Z,7.30
2022-09-12T10:56:42.231Z,7.60
2022-09-12T10:59:25.747Z,6.68
2022-09-12T11:02:01.168Z,8.43
2022-09-12T11:04:42.954Z,5.88
2022-09-12T11:26:51.068Z,6.68
2022-09-12T11:29:37.031Z,6.15
2022-09-12T11:32:23.524Z,5.78
2022-09-12T11:35:02.474Z,5.40
2022-09-12T11:37:46.225Z,5.65
2022-09-12T11:40:28.614Z,5.97
2022-09-12T11:43:06.955Z,6.03
2022-09-12T11:45:41.067Z,6.28
2022-09-12T11:48:16.515Z,6.28
2022-09-12T11:50:45.185Z,4.82
2022-09-12T11:53:21.316Z,5.78
2022-09-12T11:55:56.546Z,36.60
2022-09-12T11:58:29.338Z,6.15
2022-09-12T12:01:07.738Z,4.90
2022-09-12T12:03:43.367Z,5.13
2022-09-12T12:06:19.116Z,5.20
2022-09-12T12:08:50.537Z,5.80
2022-09-12T12:11:32.199Z,5.47
2022-09-12T12:14:05.703Z,5.25
2022-09-12T12:16:38.297Z,5.75
2022-09-12T12:21:42.413Z,5.07
2022-09-12T12:24:20.535Z,5.45
2022-09-12T12:26:58.602Z,5.15
2022-09-12T12:29:47.375Z,6.40
2022-09-12T12:32:25.438Z,5.70
2022-09-12T12:35:18.613Z,5.30
2022-09-12T12:37:53.278Z,5.10
2022-09-12T12:40:28.639Z,6.13
2022-09-12T12:43:22.677Z,5.82
2022-09-12T12:46:04.929Z,5.60
2022-09-12T12:48:46.266Z,5.05
2022-09-12T12:52:01.258Z,4.10
2022-09-12T12:54:53.700Z,5.20
2022-09-12T12:57:37.175Z,4.38
2022-09-12T13:00:09.837Z,4.25
2022-09-12T13:05:21.044Z,4.22
2022-09-12T13:07:55.750Z,3.65
2022-09-12T13:10:29.905Z,4.22
2022-09-12T13:13:03.422Z,3.95
2022-09-12T13:15:55.837Z,4.32
2022-09-12T13:18:32.808Z,3.90
2022-09-12T13:21:09.138Z,3.63
2022-09-12T13:23:37.925Z,4.43
2022-09-12T13:26:12.897Z,4.28
2022-09-12T13:28:41.674Z,4.40
2022-09-12T13:31:19.396Z,3.78
2022-09-12T13:33:54.587Z,3.15
2022-09-12T13:36:58.605Z,5.65
2022-09-12T13:39:30.044Z,3.60
2022-09-12T13:42:31.077Z,10.38
2022-09-12T13:45:03.281Z,6.57
2022-09-12T13:47:34.602Z,3.58
2022-09-12T13:50:07.245Z,3.45
2022-09-12T13:55:09.136Z,2.80
2022-09-12T13:57:41.368Z,3.15
2022-09-12T14:00:19.376Z,3.17
2022-09-12T14:02:49.276Z,3.42
2022-09-12T14:05:22.588Z,2.80
2022-09-12T14:07:58.420Z,2.53
2022-09-12T14:10:33.155Z,3.00
2022-09-12T14:13:05.534Z,2.80
2022-09-12T14:15:38.234Z,23.52
2022-09-12T14:20:39.922Z,6.50
2022-09-12T14:23:21.109Z,3.60
2022-09-12T14:25:52.135Z,3.33
2022-09-12T14:28:23.593Z,3.33
2022-09-12T14:31:00.689Z,2.80
2022-09-12T14:33:30.261Z,2.70
2022-09-12T14:36:13.199Z,3.03
2022-09-12T14:41:15.318Z,2.90
2022-09-12T14:43:47.196Z,2.60
2022-09-12T14:46:20.640Z,2.63
2022-09-12T14:48:52.338Z,2.88
2022-09-12T14:51:28.501Z,2.70
2022-09-12T14:53:58.453Z,2.95
2022-09-12T14:56:40.125Z,2.65
2022-09-12T14:59:31.932Z,2.67
2022-09-12T15:02:24.217Z,2.58
2022-09-12T15:04:55.384Z,2.33
2022-09-12T15:07:33.945Z,3.00
2022-09-12T15:10:06.662Z,2.30
2022-09-12T15:15:15.833Z,2.78
2022-09-12T15:17:46.896Z,2.53
2022-09-12T15:20:17.948Z,2.45
2022-09-12T15:22:48.164Z,57.25
2022-09-12T15:25:17.030Z,9.90
2022-09-12T15:27:46.381Z,3.15
2022-09-12T15:30:15.791Z,2.83
2022-09-12T15:32:45.458Z,2.25
2022-09-12T15:35:17.257Z,2.25
2022-09-12T15:37:47.278Z,2.10
2022-09-12T15:40:16.539Z,2.60
2022-09-12T15:42:45.640Z,2.55
2022-09-12T15:45:19.556Z,2.67
2022-09-12T15:47:50.589Z,2.67
2022-09-12T15:50:19.385Z,2.97
2022-09-12T15:52:49.630Z,3.70
2022-09-12T15:55:24.458Z,3.97
2022-09-12T15:57:53.173Z,3.33
2022-09-12T16:00:25.038Z,2.83
2022-09-12T16:02:54.676Z,2.53
2022-09-12T16:05:25.264Z,2.10
2022-09-12T16:07:56.459Z,2.13
2022-09-12T16:10:28.970Z,2.40
2022-09-12T16:12:58.335Z,2.60
2022-09-12T16:15:27.453Z,2.60
2022-09-12T16:17:56.155Z,3.05
2022-09-12T16:20:24.923Z,2.65
2022-09-12T16:22:57.319Z,2.88
2022-09-12T16:25:26.529Z,2.78
2022-09-12T16:27:55.337Z,2.65
2022-09-12T16:30:24.132Z,2.78
2022-09-12T16:32:53.571Z,2.50
2022-09-12T16:35:22.754Z,2.50
2022-09-12T16:37:51.746Z,3.28
2022-09-12T16:40:21.850Z,3.35
2022-09-12T16:42:52.980Z,3.13
2022-09-12T16:45:23.933Z,3.20
2022-09-12T16:47:52.579Z,3.40
2022-09-12T16:50:21.352Z,3.20
2022-09-12T16:52:50.010Z,3.03
2022-09-12T16:55:18.668Z,2.90
2022-09-12T16:57:50.918Z,3.05
2022-09-12T17:00:19.653Z,4.30
2022-09-12T17:02:50.523Z,51.60
2022-09-12T17:05:19.398Z,43.83
2022-09-12T17:07:48.014Z,21.13
2022-09-12T17:10:16.746Z,4.63
2022-09-12T17:12:45.445Z,2.75
2022-09-12T17:15:16.284Z,2.97
2022-09-12T17:17:45.836Z,3.00
2022-09-12T17:20:14.562Z,3.00
2022-09-12T17:22:46.209Z,4.15
2022-09-12T17:25:15.009Z,3.67
2022-09-12T17:27:43.722Z,3.97
2022-09-12T17:30:13.147Z,4.30
2022-09-12T17:32:43.166Z,3.22
2022-09-12T17:35:12.596Z,3.50
2022-09-12T17:37:41.687Z,3.10
2022-09-12T17:40:11.226Z,3.60
2022-09-12T17:42:41.008Z,3.85
2022-09-12T17:45:18.321Z,4.35
2022-09-12T17:47:50.761Z,3.47
2022-09-12T17:50:31.592Z,2.72
2022-09-12T17:53:03.796Z,2.50
2022-09-12T17:55:38.217Z,2.95
2022-09-12T17:58:08.203Z,3.58
2022-09-12T18:00:57.364Z,3.28
2022-09-12T18:03:27.896Z,3.85
2022-09-12T18:05:57.577Z,4.15
2022-09-12T18:08:26.581Z,3.92
2022-09-12T18:10:55.228Z,3.60
2022-09-12T18:13:26.417Z,3.50
2022-09-12T18:16:04.358Z,4.38
2022-09-12T18:18:35.224Z,3.97
2022-09-12T18:21:04.177Z,4.15
2022-09-12T18:23:35.480Z,3.72
2022-09-12T18:26:06.672Z,3.45
2022-09-12T18:28:36.152Z,4.03
2022-09-12T18:31:05.859Z,3.70
2022-09-12T18:33:36.034Z,5.20
2022-09-12T18:36:05.824Z,4.65
2022-09-12T18:38:34.679Z,6.07
2022-09-12T18:41:04.579Z,5.85
2022-09-12T18:43:33.912Z,6.00
2022-09-12T18:46:06.412Z,5.75
2022-09-12T18:48:37.122Z,4.88
2022-09-12T18:51:08.230Z,6.38
2022-09-12T18:53:39.998Z,5.45
2022-09-12T18:56:10.687Z,5.75
2022-09-12T18:58:42.084Z,6.05
2022-09-12T19:01:12.296Z,6.97
2022-09-12T19:03:43.066Z,6.80
2022-09-12T19:06:13.641Z,5.93
2022-09-12T19:08:42.774Z,6.57
2022-09-12T19:11:14.145Z,6.43
2022-09-12T19:13:48.490Z,5.68
2022-09-12T19:16:18.916Z,6.05
2022-09-12T19:18:49.896Z,5.20
2022-09-12T19:21:21.256Z,5.97
2022-09-12T19:23:54.527Z,5.10
2022-09-12T19:26:29.086Z,6.47
2022-09-12T19:29:02.583Z,5.85
2022-09-12T19:31:31.717Z,8.27
2022-09-12T19:34:02.687Z,26.88
2022-09-12T19:36:51.738Z,11.48
2022-09-12T19:39:28.651Z,11.13
2022-09-12T19:41:57.876Z,9.32
2022-09-12T19:44:27.698Z,9.02
2022-09-12T19:46:58.016Z,8.85
2022-09-12T19:49:36.816Z,6.78
2022-09-12T19:52:07.699Z,5.93
2022-09-12T19:54:41.782Z,6.97
2022-09-12T19:57:13.299Z,7.57
2022-09-12T19:59:48.276Z,6.43
2022-09-12T20:02:19.457Z,7.95
2022-09-12T20:04:52.790Z,8.73
2022-09-12T20:07:22.205Z,8.85
2022-09-12T20:09:51.258Z,9.13
2022-09-12T20:12:21.047Z,8.73
2022-09-12T20:14:51.936Z,8.68
2022-09-12T20:17:22.223Z,9.23
2022-09-12T20:19:54.653Z,8.48
2022-09-12T20:22:25.752Z,7.45
2022-09-12T20:24:57.197Z,8.13
2022-09-12T20:27:28.121Z,7.93
2022-09-12T20:30:01.841Z,10.15
2022-09-12T20:32:30.877Z,10.98
2022-09-12T20:35:00.991Z,9.93
2022-09-12T20:37:31.043Z,10.73
2022-09-12T20:39:59.862Z,10.60
2022-09-12T20:42:38.101Z,10.00
2022-09-12T20:45:09.571Z,10.13
2022-09-12T20:47:38.243Z,10.23
2022-09-12T20:50:09.277Z,8.60
2022-09-12T20:52:37.971Z,9.93
2022-09-12T20:55:07.637Z,10.40
2022-09-12T20:57:36.499Z,10.93
2022-09-12T21:00:07.460Z,11.15
2022-09-12T21:02:36.258Z,11.45
2022-09-12T21:05:05.479Z,11.55
2022-09-12T21:07:35.546Z,10.98
2022-09-12T21:10:04.622Z,11.77
2022-09-12T21:12:33.311Z,12.50
2022-09-12T21:15:02.001Z,10.63
2022-09-12T21:17:33.184Z,11.63
2022-09-12T21:20:02.231Z,11.82
2022-09-12T21:22:33.423Z,10.68
2022-09-12T21:25:03.583Z,11.77
2022-09-12T21:27:32.431Z,11.98
2022-09-12T21:30:03.403Z,11.18
2022-09-12T21:32:34.770Z,12.48
2022-09-12T21:35:04.176Z,10.27
2022-09-12T21:37:33.171Z,11.45
2022-09-12T21:40:03.726Z,10.20
2022-09-12T21:42:32.929Z,12.18
2022-09-12T21:45:01.615Z,12.07
2022-09-12T21:47:30.369Z,10.85
2022-09-12T21:50:01.478Z,12.38
2022-09-12T21:52:30.427Z,11.50
2022-09-12T21:54:59.185Z,12.23
2022-09-12T21:57:29.254Z,11.02
2022-09-12T21:59:57.938Z,11.63
2022-09-12T22:02:28.363Z,13.35
2022-09-12T22:04:57.350Z,11.60
2022-09-12T22:07:26.497Z,12.35
2022-09-12T22:09:55.325Z,12.00
2022-09-12T22:12:27.489Z,12.25
2022-09-12T22:14:57.513Z,12.23
2022-09-12T22:17:26.272Z,13.90
2022-09-12T22:19:54.953Z,12.25
2022-09-12T22:22:41.263Z,12.52
2022-09-12T22:25:11.321Z,12.35
2022-09-12T22:27:40.276Z,12.50
2022-09-12T22:30:11.874Z,13.05
2022-09-12T22:32:40.563Z,13.20
2022-09-12T22:35:09.686Z,13.73
2022-09-12T22:37:38.288Z,13.50
2022-09-12T22:40:07.830Z,13.32
2022-09-12T22:42:37.103Z,13.38
2022-09-12T22:45:07.689Z,14.00
2022-09-12T22:47:37.893Z,14.95
2022-09-12T22:50:07.757Z,12.63
2022-09-12T22:52:38.783Z,14.63
2022-09-12T22:55:10.917Z,13.85
2022-09-12T22:57:39.802Z,14.57
2022-09-12T23:00:10.587Z,12.73
2022-09-12T23:05:11.713Z,13.88
2022-09-12T23:07:40.484Z,12.80
2022-09-12T23:10:10.704Z,12.45
2022-09-12T23:12:39.413Z,11.95
2022-09-12T23:15:10.179Z,13.32
2022-09-12T23:17:38.884Z,15.18
2022-09-12T23:20:10.125Z,14.23
2022-09-12T23:22:38.852Z,14.07
2022-09-12T23:25:10.028Z,14.38
2022-09-12T23:27:40.110Z,14.38
2022-09-12T23:30:10.464Z,13.95
2022-09-12T23:32:39.551Z,12.80
2022-09-12T23:35:09.961Z,13.82
2022-09-12T23:37:38.633Z,14.05
2022-09-12T23:40:08.924Z,14.40
2022-09-12T23:42:37.731Z,13.65
2022-09-12T23:45:07.036Z,15.05
2022-09-12T23:47:35.666Z,14.40
2022-09-12T23:50:04.875Z,15.13
2022-09-12T23:52:35.197Z,14.93
2022-09-12T23:55:03.931Z,15.32
2022-09-12T23:57:32.589Z,14.18
